Time;durP1;ratioP1;P1;durP2;ratioP2;P2;SDS_P1;SDS_P2;PMS_P1;PMS_P2;Temp;Humidity;BMP_temperature;BMP_pressure;BME280_temperature;BME280_humidity;BME280_pressure;Samples;Min_cycle;Max_cycle;Signal;HPM_P1;HPM_P2
2022/12/12 00:01:30;;;;;;;39.20;19.08;;;;;;;6.20;60.46;101153.97;5032207;28;20025;-40
2022/12/12 00:03:56;;;;;;;42.13;19.58;;;;;;;6.30;60.38;101153.44;5032733;28;20033;-41
2022/12/12 00:06:21;;;;;;;41.80;19.52;;;;;;;6.28;60.09;101153.38;5031194;28;20022;-40
2022/12/12 00:08:47;;;;;;;39.53;20.30;;;;;;;6.33;60.33;101150.97;5031681;28;20451;-40
2022/12/12 00:11:13;;;;;;;37.47;18.90;;;;;;;6.31;60.48;101143.16;5029965;28;20051;-40
2022/12/12 00:13:39;;;;;;;39.85;18.90;;;;;;;6.31;60.44;101152.63;5030612;28;20144;-40
2022/12/12 00:16:06;;;;;;;36.80;18.58;;;;;;;6.21;60.68;101143.66;5031031;28;20029;-38
2022/12/12 00:18:31;;;;;;;36.75;18.75;;;;;;;6.13;60.81;101139.03;5031576;28;20040;-41
2022/12/12 00:20:57;;;;;;;36.30;18.67;;;;;;;6.14;60.78;101144.28;5031594;28;20029;-39
2022/12/12 00:23:24;;;;;;;34.60;18.67;;;;;;;6.18;60.46;101150.44;5030995;28;20116;-39
2022/12/12 00:25:55;;;;;;;36.25;18.38;;;;;;;6.13;60.62;101155.44;5030449;28;20063;-41
2022/12/12 00:28:20;;;;;;;35.60;18.70;;;;;;;6.02;61.15;101152.47;5030201;28;20039;-42
2022/12/12 00:30:46;;;;;;;37.85;18.67;;;;;;;5.90;61.66;101154.63;5029705;28;20021;-41
2022/12/12 00:33:11;;;;;;;38.78;18.98;;;;;;;5.85;61.80;101150.97;5030060;28;20028;-40
2022/12/12 00:35:36;;;;;;;37.60;18.40;;;;;;;5.95;61.42;101162.56;5030188;28;20493;-40
2022/12/12 00:38:02;;;;;;;36.28;17.95;;;;;;;5.73;61.58;101153.09;5032692;28;20039;-40
2022/12/12 00:40:27;;;;;;;37.35;18.45;;;;;;;5.77;61.63;101154.97;5034169;28;20021;-40
2022/12/12 00:42:52;;;;;;;37.42;18.52;;;;;;;5.64;61.89;101163.09;5033527;28;20346;-40
2022/12/12 00:45:18;;;;;;;36.42;17.73;;;;;;;5.60;61.62;101161.22;5034497;28;20021;-40
2022/12/12 00:47:43;;;;;;;36.80;17.70;;;;;;;5.49;61.82;101159.94;5034648;28;20029;-40
2022/12/12 00:50:09;;;;;;;36.95;18.55;;;;;;;5.38;62.64;101161.19;5033625;28;20021;-41
2022/12/12 00:52:34;;;;;;;37.63;18.40;;;;;;;5.24;62.60;101156.41;5032297;28;20029;-39
2022/12/12 00:54:59;;;;;;;35.47;18.23;;;;;;;5.21;62.53;101170.91;5034117;28;20029;-42
2022/12/12 00:57:25;;;;;;;37.15;18.15;;;;;;;5.13;62.88;101167.13;5034752;28;20510;-41
2022/12/12 00:59:50;;;;;;;34.90;17.45;;;;;;;5.00;62.47;101168.31;5034960;28;20102;-41
2022/12/12 01:02:15;;;;;;;37.70;18.17;;;;;;;4.95;63.31;101169.84;5034695;28;20045;-40
2022/12/12 01:04:41;;;;;;;37.10;17.77;;;;;;;4.85;63.69;101167.72;5034614;28;20021;-41
2022/12/12 01:07:06;;;;;;;36.28;18.00;;;;;;;4.88;64.54;101178.16;5029893;28;20087;-40
2022/12/12 01:09:33;;;;;;;40.00;18.13;;;;;;;4.93;64.56;101168.91;5029584;28;20500;-40
2022/12/12 01:11:58;;;;;;;38.75;18.05;;;;;;;4.94;65.08;101170.66;5029200;28;20520;-41
2022/12/12 01:14:24;;;;;;;39.65;18.58;;;;;;;4.93;64.84;101168.03;5029239;28;20029;-39
2022/12/12 01:16:49;;;;;;;40.00;18.73;;;;;;;5.07;64.44;101172.91;5033028;28;20035;-41
2022/12/12 01:19:14;;;;;;;37.53;18.77;;;;;;;5.12;64.43;101175.72;5033409;28;20401;-41
2022/12/12 01:21:40;;;;;;;39.05;18.00;;;;;;;5.12;64.68;101176.56;5035586;28;20033;-38
2022/12/12 01:24:05;;;;;;;40.83;19.08;;;;;;;5.09;64.51;101179.03;5035711;28;20053;-40
2022/12/12 01:26:30;;;;;;;40.22;18.85;;;;;;;5.11;63.87;101176.53;5035184;28;20033;-41
2022/12/12 01:28:56;;;;;;;36.67;18.13;;;;;;;5.06;63.91;101171.16;5032793;28;20025;-43
2022/12/12 01:31:21;;;;;;;38.50;19.55;;;;;;;4.87;64.36;101179.00;5033048;28;20140;-38
2022/12/12 01:33:46;;;;;;;40.33;18.75;;;;;;;4.87;64.29;101185.06;5033257;28;20049;-41
2022/12/12 01:36:15;;;;;;;40.00;18.98;;;;;;;4.82;64.05;101183.97;5032818;28;20371;-41
2022/12/12 01:38:45;;;;;;;42.00;19.77;;;;;;;4.76;64.25;101193.16;5033194;28;20051;-41
2022/12/12 01:41:10;;;;;;;40.88;19.70;;;;;;;4.68;64.00;101187.69;5032275;28;20029;-41
2022/12/12 01:43:36;;;;;;;39.45;19.08;;;;;;;4.63;64.21;101196.06;5033534;28;20159;-41
2022/12/12 01:46:01;;;;;;;40.67;19.13;;;;;;;4.55;64.14;101193.16;5032571;28;20037;-41
2022/12/12 01:48:43;;;;;;;45.65;18.90;;;;;;;4.52;64.27;101199.88;5032995;28;20397;-42
2022/12/12 01:51:13;;;;;;;39.65;19.10;;;;;;;4.46;64.53;101205.66;5032491;28;20033;-41
2022/12/12 01:53:38;;;;;;;40.33;19.15;;;;;;;4.38;64.67;101200.19;5032644;28;20022;-42
2022/12/12 01:56:11;;;;;;;41.33;20.30;;;;;;;4.38;63.95;101201.88;5032674;28;20500;-40
2022/12/12 01:58:38;;;;;;;37.30;18.05;;;;;;;4.31;64.57;101199.84;5032617;28;20025;-41
2022/12/12 02:01:03;;;;;;;41.67;19.50;;;;;;;4.24;64.11;101206.44;5032624;28;20099;-41
2022/12/12 02:03:29;;;;;;;42.03;19.00;;;;;;;4.16;64.91;101200.03;5033374;28;20450;-41
2022/12/12 02:05:58;;;;;;;41.22;18.83;;;;;;;4.11;64.70;101201.53;5031412;28;20025;-43
2022/12/12 02:08:24;;;;;;;41.53;19.45;;;;;;;4.07;64.94;101207.38;5032698;28;20219;-40
2022/12/12 02:10:50;;;;;;;37.78;18.50;;;;;;;4.03;64.38;101205.47;5032057;28;20094;-38
2022/12/12 02:13:19;;;;;;;39.65;17.80;;;;;;;4.00;64.17;101215.66;5032147;28;20029;-40
2022/12/12 02:15:53;;;;;;;44.92;19.20;;;;;;;3.96;64.92;101218.94;5031992;28;20116;-37
2022/12/12 02:18:32;;;;;;;38.50;18.00;;;;;;;3.95;64.74;101225.78;5032211;28;20034;-40
2022/12/12 02:21:17;;;;;;;37.72;17.70;;;;;;;3.93;64.96;101221.34;5031778;28;20029;-36
2022/12/12 02:24:01;;;;;;;41.45;19.00;;;;;;;3.93;64.97;101218.78;5031454;28;20559;-38
2022/12/12 02:26:43;;;;;;;44.15;19.20;;;;;;;3.87;65.47;101219.38;5031389;28;20037;-41
2022/12/12 02:29:26;;;;;;;40.63;19.02;;;;;;;3.90;64.81;101224.69;5032628;28;20026;-40
2022/12/12 02:32:09;;;;;;;41.65;19.55;;;;;;;3.87;64.86;101221.06;5032246;28;20560;-44
2022/12/12 02:34:55;;;;;;;42.47;19.90;;;;;;;3.83;65.24;101229.50;5032766;28;20159;-41
2022/12/12 02:37:33;;;;;;;42.90;19.17;;;;;;;3.75;65.49;101228.25;5032671;28;20021;-41
2022/12/12 02:40:36;;;;;;;40.72;19.42;;;;;;;3.77;65.44;101232.69;5033193;28;20025;-42
2022/12/12 02:43:24;;;;;;;43.30;18.85;;;;;;;3.76;64.94;101241.22;5018790;28;20116;-40
2022/12/12 02:45:56;;;;;;;42.05;18.05;;;;;;;3.73;65.06;101235.91;5032027;28;20560;-40
2022/12/12 02:48:34;;;;;;;44.53;20.67;;;;;;;3.67;65.80;101233.03;5033559;28;20405;-38
2022/12/12 02:51:01;;;;;;;43.83;19.95;;;;;;;3.58;65.68;101225.78;5032694;28;20068;-37
2022/12/12 02:53:27;;;;;;;44.97;20.60;;;;;;;3.60;65.66;101229.28;5032682;28;20393;-40
2022/12/12 02:56:07;;;;;;;42.58;19.83;;;;;;;3.62;65.48;101226.81;5032559;28;20029;-41
2022/12/12 02:58:37;;;;;;;44.45;19.85;;;;;;;3.57;65.82;101220.56;5032557;28;20025;-41
2022/12/12 03:01:25;;;;;;;42.60;19.83;;;;;;;3.54;66.03;101222.97;5032487;28;20025;-41
2022/12/12 03:09:50;;;;;;;45.90;20.90;;;;;;;3.47;66.66;101226.09;5034625;28;20064;-39
2022/12/12 03:12:26;;;;;;;48.83;20.10;;;;;;;3.64;66.75;101227.75;5031841;28;20026;-42
2022/12/12 03:15:07;;;;;;;46.25;20.90;;;;;;;3.68;66.24;101225.38;5030906;28;20029;-41
2022/12/12 03:17:44;;;;;;;44.22;19.98;;;;;;;3.65;65.21;101230.41;5030845;28;20106;-42
2022/12/12 03:20:16;;;;;;;46.45;20.58;;;;;;;3.57;65.89;101226.59;5030909;28;20018;-40
2022/12/12 03:22:50;;;;;;;45.60;20.23;;;;;;;3.56;64.92;101224.81;5031149;28;20113;-38
2022/12/12 03:25:37;;;;;;;48.08;21.55;;;;;;;3.49;65.96;101234.75;5032672;28;20470;-46
2022/12/12 03:28:28;;;;;;;43.92;20.23;;;;;;;3.40;65.50;101237.81;5031279;28;20036;-41
2022/12/12 03:30:57;;;;;;;45.65;21.80;;;;;;;3.39;65.68;101236.03;5030523;28;20033;-44
2022/12/12 03:33:38;;;;;;;50.58;22.40;;;;;;;3.36;65.75;101230.72;5030899;28;20034;-41
2022/12/12 03:36:15;;;;;;;47.40;20.88;;;;;;;3.32;66.05;101231.38;5031859;28;20044;-43
2022/12/12 03:38:48;;;;;;;45.97;21.27;;;;;;;3.28;65.63;101237.22;5035154;28;20398;-41
2022/12/12 03:41:19;;;;;;;46.28;21.48;;;;;;;3.26;66.02;101239.72;5033881;28;20055;-42
2022/12/12 03:44:05;;;;;;;51.65;20.90;;;;;;;3.26;66.30;101234.56;5030913;28;21133;-42
2022/12/12 03:46:45;;;;;;;48.15;21.05;;;;;;;3.26;66.38;101234.56;5030994;28;20087;-41
2022/12/12 03:49:26;;;;;;;50.67;21.67;;;;;;;3.29;66.19;101226.09;5030815;28;20029;-40
2022/12/12 03:52:00;;;;;;;50.88;22.10;;;;;;;3.24;66.29;101224.97;5030116;28;20407;-41
2022/12/12 03:54:34;;;;;;;48.17;22.63;;;;;;;3.27;66.07;101227.72;5030775;28;20025;-40
2022/12/12 03:57:04;;;;;;;49.35;21.88;;;;;;;3.24;66.29;101224.97;5030449;28;20052;-44
2022/12/12 03:59:41;;;;;;;47.15;21.88;;;;;;;3.22;66.17;101236.91;5030378;28;20025;-43
2022/12/12 04:02:23;;;;;;;45.08;21.52;;;;;;;3.26;66.43;101237.13;5030009;28;20033;-41
2022/12/12 04:05:02;;;;;;;46.28;21.55;;;;;;;3.25;66.46;101240.50;5029100;28;20021;-38
2022/12/12 04:07:34;;;;;;;48.30;21.55;;;;;;;3.17;66.14;101236.69;5030488;28;20116;-41
2022/12/12 04:13:16;;;;;;;50.20;21.63;;;;;;;3.16;66.13;101237.50;5030131;28;20087;-41
2022/12/12 04:15:52;;;;;;;48.53;20.80;;;;;;;2.95;67.05;101238.13;5031088;28;20029;-45
2022/12/12 04:18:17;;;;;;;48.47;21.58;;;;;;;3.11;66.77;101235.53;5030555;28;20029;-41
2022/12/12 04:23:43;;;;;;;48.08;22.13;;;;;;;3.03;65.84;101241.97;5030667;28;20068;-40
2022/12/12 04:29:01;;;;;;;50.20;21.95;;;;;;;2.90;66.33;101242.19;5032182;28;20097;-42
2022/12/12 04:31:29;;;;;;;48.45;22.02;;;;;;;2.83;65.89;101241.88;5031516;28;20029;-41
2022/12/12 04:34:01;;;;;;;47.85;21.20;;;;;;;2.82;65.69;101239.22;5029212;28;20025;-42
2022/12/12 04:36:27;;;;;;;50.72;22.58;;;;;;;2.75;66.41;101240.59;5031981;28;20086;-40
2022/12/12 04:38:55;;;;;;;53.10;22.58;;;;;;;2.78;66.64;101248.50;5032662;28;20025;-41
2022/12/12 04:41:21;;;;;;;50.55;21.75;;;;;;;2.75;66.49;101248.31;5034345;28;20421;-43
2022/12/12 04:43:50;;;;;;;51.17;22.67;;;;;;;2.75;65.75;101248.31;5037122;28;20018;-43
2022/12/12 04:46:21;;;;;;;47.83;21.27;;;;;;;2.73;66.62;101251.63;5037459;28;20474;-43
2022/12/12 04:48:52;;;;;;;51.72;21.52;;;;;;;2.68;66.38;101255.69;5036854;28;20134;-45
2022/12/12 04:51:25;;;;;;;48.35;21.42;;;;;;;2.66;66.26;101252.13;5038601;28;20029;-44
2022/12/12 04:54:10;;;;;;;48.63;21.42;;;;;;;2.64;66.32;101254.63;5040122;28;20022;-46
2022/12/12 04:56:39;;;;;;;46.50;19.88;;;;;;;2.62;65.78;101250.22;5040635;28;20032;-38
2022/12/12 04:59:06;;;;;;;47.03;20.60;;;;;;;2.58;65.77;101256.00;5041109;28;20049;-43
2022/12/12 05:01:36;;;;;;;48.08;20.80;;;;;;;2.53;66.63;101250.63;5037913;28;20438;-44
2022/12/12 05:04:13;;;;;;;49.75;21.58;;;;;;;2.50;66.25;101250.44;5035540;28;20022;-39
2022/12/12 05:06:47;;;;;;;46.65;20.77;;;;;;;2.55;66.52;101248.13;5036484;28;20036;-40
2022/12/12 05:09:16;;;;;;;46.95;21.23;;;;;;;2.54;66.60;101247.25;5036256;28;20025;-40
2022/12/12 05:11:41;;;;;;;46.65;20.45;;;;;;;2.53;66.39;101242.00;5033525;28;20036;-40
2022/12/12 05:14:08;;;;;;;42.80;19.80;;;;;;;2.52;65.86;101248.84;5033759;28;20022;-40
2022/12/12 05:16:45;;;;;;;49.63;20.77;;;;;;;2.43;66.71;101245.81;5036292;28;20048;-40
2022/12/12 05:19:11;;;;;;;48.05;20.98;;;;;;;2.42;66.22;101246.63;5036057;28;20091;-42
2022/12/12 05:21:36;;;;;;;45.13;19.45;;;;;;;2.41;66.29;101242.25;5034806;28;20317;-41
2022/12/12 05:24:01;;;;;;;43.28;20.38;;;;;;;2.40;66.49;101250.78;5035899;28;20106;-41
2022/12/12 05:26:29;;;;;;;49.13;21.63;;;;;;;2.30;66.72;101259.72;5034358;28;20129;-41
2022/12/12 05:28:55;;;;;;;53.03;21.67;;;;;;;2.30;66.32;101263.97;5033448;28;20025;-39
2022/12/12 05:31:20;;;;;;;48.78;20.63;;;;;;;2.30;66.11;101262.31;5032878;28;20021;-39
2022/12/12 05:33:46;;;;;;;47.25;20.17;;;;;;;2.28;66.55;101268.16;5033293;28;20397;-41
2022/12/12 05:36:11;;;;;;;46.42;20.95;;;;;;;2.26;66.12;101265.50;5033878;28;20478;-40
2022/12/12 05:38:37;;;;;;;48.20;21.73;;;;;;;2.21;66.73;101266.06;5033510;28;20095;-38
2022/12/12 05:41:03;;;;;;;47.65;20.80;;;;;;;2.24;66.70;101268.81;5035178;28;20055;-43
2022/12/12 05:43:28;;;;;;;47.17;20.90;;;;;;;2.22;66.15;101263.56;5035034;28;20037;-39
2022/12/12 05:45:53;;;;;;;48.22;21.20;;;;;;;2.23;66.89;101267.03;5035204;28;20440;-39
2022/12/12 05:48:19;;;;;;;48.97;21.10;;;;;;;2.20;66.09;101270.31;5033623;28;20025;-42
2022/12/12 05:50:44;;;;;;;50.63;20.77;;;;;;;2.17;66.58;101267.59;5037015;28;20029;-41
2022/12/12 05:53:10;;;;;;;50.88;22.48;;;;;;;2.08;67.24;101268.78;5036945;28;20029;-40
2022/12/12 05:55:35;;;;;;;49.90;21.98;;;;;;;2.28;67.36;101274.19;5035354;28;20442;-38
2022/12/12 05:58:01;;;;;;;48.35;21.23;;;;;;;2.22;67.08;101271.28;5035554;28;20038;-40
2022/12/12 06:00:26;;;;;;;49.13;21.80;;;;;;;2.32;67.51;101272.66;5034509;28;20080;-43
2022/12/12 06:02:52;;;;;;;53.33;22.30;;;;;;;2.32;67.04;101272.66;5034952;28;20101;-41
2022/12/12 06:05:17;;;;;;;47.30;22.20;;;;;;;2.29;67.57;101275.06;5038888;28;20063;-39
2022/12/12 06:07:42;;;;;;;50.72;22.13;;;;;;;2.41;67.05;101286.91;5038791;28;20436;-44
2022/12/12 06:10:08;;;;;;;50.47;22.58;;;;;;;2.31;67.06;101279.50;5038897;28;20052;-41
2022/12/12 06:12:33;;;;;;;48.25;21.80;;;;;;;2.31;67.02;101284.66;5039925;28;20632;-39
2022/12/12 06:14:59;;;;;;;49.13;21.55;;;;;;;2.36;67.49;101287.47;5040849;28;20024;-40
2022/12/12 06:17:24;;;;;;;52.05;21.98;;;;;;;2.36;67.22;101290.03;5040738;28;20104;-38
2022/12/12 06:19:51;;;;;;;53.85;22.35;;;;;;;2.23;67.75;101291.06;5033170;28;20490;-41
2022/12/12 06:22:17;;;;;;;49.05;22.10;;;;;;;2.22;67.15;101288.41;5032583;28;20056;-42
2022/12/12 06:24:42;;;;;;;52.05;23.40;;;;;;;2.21;67.53;101295.25;5032872;28;20363;-39
2022/12/12 06:27:07;;;;;;;54.03;22.25;;;;;;;2.31;67.39;101288.91;5035567;28;20033;-40
2022/12/12 06:29:33;;;;;;;59.33;23.05;;;;;;;2.29;67.01;101293.97;5033815;28;20052;-39
2022/12/12 06:31:58;;;;;;;55.17;23.00;;;;;;;2.35;66.76;101291.72;5035319;28;20022;-40
2022/12/12 06:34:23;;;;;;;52.60;22.70;;;;;;;2.34;66.37;101300.25;5034533;28;20022;-41
2022/12/12 06:36:49;;;;;;;51.05;21.95;;;;;;;2.31;66.58;101294.94;5031881;28;20091;-40
2022/12/12 06:39:14;;;;;;;52.63;21.60;;;;;;;2.25;66.25;101296.31;5031692;28;20032;-41
2022/12/12 06:41:40;;;;;;;52.58;22.38;;;;;;;2.17;65.92;101302.72;5032038;28;20026;-41
2022/12/12 06:44:05;;;;;;;53.45;22.98;;;;;;;2.10;66.62;101305.75;5031554;28;20080;-39
2022/12/12 06:46:31;;;;;;;55.78;22.45;;;;;;;2.07;65.79;101310.75;5031427;28;20056;-39
2022/12/12 06:48:57;;;;;;;50.85;22.20;;;;;;;2.01;65.31;101314.72;5031221;28;20386;-41
2022/12/12 06:51:25;;;;;;;50.88;22.25;;;;;;;1.97;65.87;101309.34;5031455;28;20330;-40
2022/12/12 06:53:51;;;;;;;50.70;21.92;;;;;;;1.94;66.32;101302.38;5031287;28;20121;-42
2022/12/12 06:56:19;;;;;;;51.47;22.13;;;;;;;1.94;65.91;101310.09;5031607;28;20062;-40
2022/12/12 06:58:45;;;;;;;52.10;21.92;;;;;;;1.92;66.05;101309.09;5030902;28;20035;-40
2022/12/12 07:01:12;;;;;;;51.60;22.70;;;;;;;1.90;66.07;101315.84;5031153;28;20025;-41
2022/12/12 07:03:38;;;;;;;54.05;22.58;;;;;;;1.88;65.90;101311.44;5031265;28;20021;-41
2022/12/12 07:06:04;;;;;;;55.15;23.75;;;;;;;1.88;66.33;101319.16;5032296;28;20021;-41
2022/12/12 07:08:29;;;;;;;57.28;23.88;;;;;;;1.86;66.42;101313.03;5033415;28;20071;-41
2022/12/12 07:10:55;;;;;;;63.40;23.88;;;;;;;1.91;66.90;101317.63;5033289;28;20175;-40
2022/12/12 07:13:21;;;;;;;56.95;24.13;;;;;;;1.93;66.48;101323.75;5031481;28;20455;-43
2022/12/12 07:15:48;;;;;;;62.28;23.52;;;;;;;1.98;66.98;101322.28;5030384;28;20436;-40
2022/12/12 07:18:15;;;;;;;61.25;24.77;;;;;;;1.94;67.18;101327.19;5034391;28;20037;-39
2022/12/12 07:20:42;;;;;;;58.13;23.73;;;;;;;2.06;67.14;101330.44;5034239;28;20045;-39
2022/12/12 07:23:08;;;;;;;55.70;23.23;;;;;;;2.05;66.90;101326.09;5035940;28;20029;-40
2022/12/12 07:25:37;;;;;;;55.45;22.92;;;;;;;2.06;66.96;101329.56;5037357;28;20033;-42
2022/12/12 07:28:02;;;;;;;57.92;24.35;;;;;;;2.04;66.27;101324.31;5037844;28;20124;-40
2022/12/12 07:30:27;;;;;;;57.20;23.58;;;;;;;2.03;67.19;101327.69;5036884;28;20550;-44
2022/12/12 07:32:53;;;;;;;55.58;23.23;;;;;;;2.08;67.25;101325.34;5033791;28;20033;-40
2022/12/12 07:35:18;;;;;;;58.88;23.95;;;;;;;1.99;67.50;101328.31;5034747;28;20068;-38
2022/12/12 07:37:43;;;;;;;59.30;23.80;;;;;;;2.00;67.38;101330.09;5035429;28;20021;-38
2022/12/12 07:40:09;;;;;;;58.78;23.33;;;;;;;2.08;67.21;101333.97;5040752;28;20037;-44
2022/12/12 07:42:34;;;;;;;59.40;23.90;;;;;;;1.96;67.21;101333.28;5053149;28;20073;-40
2022/12/12 07:44:59;;;;;;;57.10;23.80;;;;;;;1.97;67.53;101342.78;5053146;28;20025;-38
2022/12/12 07:47:25;;;;;;;60.17;24.60;;;;;;;2.10;67.15;101334.94;5053434;28;20032;-38
2022/12/12 07:49:50;;;;;;;56.58;22.90;;;;;;;1.98;66.77;101342.88;5054905;28;20021;-40
2022/12/12 07:52:15;;;;;;;54.95;23.73;;;;;;;1.98;67.14;101345.44;5054700;28;20572;-40
2022/12/12 07:54:41;;;;;;;52.60;22.88;;;;;;;2.02;67.51;101346.47;5054329;28;20039;-42
2022/12/12 07:57:06;;;;;;;55.70;23.75;;;;;;;1.98;67.41;101349.69;5054382;28;20025;-36
2022/12/12 07:59:31;;;;;;;59.25;24.52;;;;;;;2.01;67.88;101355.88;5053472;28;20025;-39
2022/12/12 08:01:56;;;;;;;56.60;22.98;;;;;;;2.16;66.91;101360.09;5053064;28;20178;-40
2022/12/12 08:04:22;;;;;;;56.95;22.83;;;;;;;2.11;67.44;101367.56;5055309;28;20025;-40
2022/12/12 08:06:47;;;;;;;53.70;22.77;;;;;;;2.16;67.17;101384.13;5056133;28;20029;-43
2022/12/12 08:09:13;;;;;;;52.78;22.45;;;;;;;2.01;67.05;101383.31;5055197;28;20033;-40
2022/12/12 08:11:39;;;;;;;55.72;23.20;;;;;;;1.84;67.84;101384.03;5051297;28;20378;-42
2022/12/12 08:14:06;;;;;;;53.65;22.70;;;;;;;2.13;67.21;101383.97;5051131;28;20474;-38
2022/12/12 08:16:31;;;;;;;56.55;22.98;;;;;;;2.17;67.08;101380.78;5050609;28;20032;-40
2022/12/12 08:18:57;;;;;;;55.13;23.77;;;;;;;1.76;68.02;101380.16;5051216;28;20025;-43
2022/12/12 08:21:25;;;;;;;55.13;22.65;;;;;;;1.90;67.96;101387.81;5049158;28;20048;-39
2022/12/12 08:23:50;;;;;;;52.25;21.95;;;;;;;2.08;67.88;101379.34;5050601;28;20379;-43
2022/12/12 08:26:17;;;;;;;50.08;21.75;;;;;;;2.16;67.50;101388.41;5054005;28;20039;-42
2022/12/12 08:28:48;;;;;;;57.22;22.88;;;;;;;2.10;67.57;101390.63;5056184;28;20075;-41
2022/12/12 08:31:17;;;;;;;55.05;22.65;;;;;;;2.06;67.26;101380.97;5058126;28;20025;-37
2022/12/12 08:33:43;;;;;;;52.40;22.58;;;;;;;2.47;66.79;101376.41;5058140;28;20083;-41
2022/12/12 08:36:18;;;;;;;53.58;22.25;;;;;;;2.54;66.96;101381.06;5056913;28;20055;-43
2022/12/12 08:38:44;;;;;;;48.17;21.45;;;;;;;2.63;66.61;101373.81;5056946;28;20074;-41
2022/12/12 08:41:10;;;;;;;53.95;22.40;;;;;;;2.74;66.41;101372.72;5057294;28;20392;-41
2022/12/12 08:43:37;;;;;;;51.00;21.38;;;;;;;2.77;66.22;101369.41;5060252;28;20044;-41
2022/12/12 08:46:03;;;;;;;49.95;21.33;;;;;;;2.76;66.28;101372.78;5060622;28;20050;-39
2022/12/12 08:48:29;;;;;;;50.92;22.13;;;;;;;2.83;66.50;101372.31;5059612;28;20029;-41
2022/12/12 08:50:56;;;;;;;53.38;23.08;;;;;;;2.66;66.42;101371.44;5059363;28;20032;-37
2022/12/12 08:53:22;;;;;;;51.78;21.88;;;;;;;2.38;66.58;101369.06;5056590;28;20067;-39
2022/12/12 08:55:47;;;;;;;52.33;22.73;;;;;;;2.18;66.48;101377.41;5054336;28;20017;-39
2022/12/12 08:58:13;;;;;;;47.45;21.20;;;;;;;2.66;66.74;101374.00;5055016;28;20033;-41
2022/12/12 09:00:38;;;;;;;53.88;23.55;;;;;;;2.55;66.31;101387.09;5054140;28;20046;-41
2022/12/12 09:03:04;;;;;;;53.60;23.23;;;;;;;2.47;66.40;101378.97;5055028;28;20031;-37
2022/12/12 09:05:29;;;;;;;53.65;23.42;;;;;;;2.69;66.42;101383.56;5055371;28;20020;-39
2022/12/12 09:07:55;;;;;;;47.85;21.45;;;;;;;2.89;65.35;101380.34;5055647;28;20088;-42
2022/12/12 09:10:20;;;;;;;48.60;21.92;;;;;;;2.97;65.20;101381.63;5056268;28;20299;-39
2022/12/12 09:12:46;;;;;;;51.58;22.70;;;;;;;2.95;65.14;101377.19;5056981;28;20032;-35
2022/12/12 09:15:12;;;;;;;51.72;22.77;;;;;;;2.85;65.69;101383.56;5055186;28;20016;-40
2022/12/12 09:17:37;;;;;;;53.22;22.15;;;;;;;2.88;66.00;101383.72;5054403;28;20029;-41
2022/12/12 09:20:03;;;;;;;56.17;22.60;;;;;;;3.04;65.01;101390.56;5053697;28;20363;-39
2022/12/12 09:22:28;;;;;;;50.08;22.15;;;;;;;3.08;65.68;101395.94;5054476;28;20044;-42
2022/12/12 09:24:53;;;;;;;47.83;21.45;;;;;;;3.02;64.47;101393.06;5073914;22;20045;-43
2022/12/12 09:27:19;;;;;;;51.40;22.00;;;;;;;2.82;65.18;101392.00;5033477;28;20088;-41
2022/12/12 09:29:44;;;;;;;46.92;21.48;;;;;;;2.93;65.30;101390.00;5032893;28;20044;-40
2022/12/12 09:32:10;;;;;;;45.58;20.77;;;;;;;2.84;65.14;101387.84;5032868;28;20021;-46
2022/12/12 09:34:36;;;;;;;49.60;20.55;;;;;;;3.04;65.06;101383.72;5033268;28;20093;-41
2022/12/12 09:37:02;;;;;;;47.75;20.67;;;;;;;3.00;65.12;101384.34;5031751;28;20027;-46
2022/12/12 09:39:27;;;;;;;46.42;20.83;;;;;;;3.06;64.87;101382.09;5033353;28;20116;-41
2022/12/12 09:41:53;;;;;;;46.67;20.10;;;;;;;3.05;65.53;101390.63;5031643;28;20033;-42
2022/12/12 09:44:21;;;;;;;44.78;19.80;;;;;;;3.08;65.24;101385.66;5032924;28;20017;-42
2022/12/12 09:46:52;;;;;;;46.22;19.45;;;;;;;3.08;65.04;101385.66;5033079;28;20022;-41
2022/12/12 09:49:35;;;;;;;44.58;19.38;;;;;;;3.14;65.24;101382.50;5033062;28;20083;-42
2022/12/12 09:52:02;;;;;;;50.13;20.55;;;;;;;2.98;64.90;101385.09;5033424;28;20026;-46
2022/12/12 09:54:27;;;;;;;45.22;19.73;;;;;;;3.09;65.19;101390.00;5037848;28;20383;-42
2022/12/12 09:57:31;;;;;;;43.53;19.27;;;;;;;3.18;65.21;101385.28;5038469;28;20090;-41
2022/12/12 10:00:03;;;;;;;40.70;18.88;;;;;;;3.05;65.53;101385.47;5017601;28;20042;-43
2022/12/12 10:03:00;;;;;;;39.30;18.60;;;;;;;3.04;65.64;101393.16;5034844;28;20014;-41
2022/12/12 10:05:43;;;;;;;41.95;18.50;;;;;;;3.13;65.74;101380.72;5032861;28;20029;-43
2022/12/12 10:08:23;;;;;;;46.95;18.30;;;;;;;3.18;64.69;101376.69;5032959;28;20030;-42
2022/12/12 10:10:53;;;;;;;44.65;18.75;;;;;;;3.15;65.20;101371.38;5032853;28;20037;-43
2022/12/12 10:13:24;;;;;;;40.47;18.58;;;;;;;3.21;64.80;101377.75;5037250;28;20060;-42
2022/12/12 10:16:11;;;;;;;41.35;19.45;;;;;;;3.16;65.22;101384.34;5041552;28;20059;-41
2022/12/12 10:18:47;;;;;;;43.10;18.85;;;;;;;3.20;64.88;101385.38;5035074;28;20385;-47
2022/12/12 10:21:24;;;;;;;43.70;17.98;;;;;;;2.89;65.31;101385.50;5032448;28;20133;-43
2022/12/12 10:24:07;;;;;;;42.63;18.45;;;;;;;3.19;65.14;101374.19;5032439;28;20049;-42
2022/12/12 10:26:32;;;;;;;44.28;18.33;;;;;;;3.16;64.93;101366.31;5032536;28;20029;-42
2022/12/12 10:29:11;;;;;;;43.35;19.63;;;;;;;3.20;65.26;101367.34;5031727;28;20481;-41
2022/12/12 10:31:48;;;;;;;41.80;17.90;;;;;;;3.27;64.73;101364.28;5031966;28;20029;-45
2022/12/12 10:34:37;;;;;;;40.90;19.08;;;;;;;3.19;65.14;101363.00;5032231;28;20022;-48
2022/12/12 10:37:24;;;;;;;39.50;17.65;;;;;;;3.28;65.18;101355.75;5032128;28;20033;-39
2022/12/12 10:39:59;;;;;;;39.33;18.10;;;;;;;3.33;64.80;101362.00;5031727;28;20048;-41
2022/12/12 10:42:55;;;;;;;40.20;19.35;;;;;;;3.34;64.14;101360.31;5033086;28;20394;-42
2022/12/12 10:45:35;;;;;;;41.85;18.02;;;;;;;3.48;64.37;101357.59;5033576;28;20466;-43
2022/12/12 10:48:00;;;;;;;39.53;18.73;;;;;;;3.47;64.56;101349.81;5030919;28;20029;-42
2022/12/12 10:50:33;;;;;;;39.33;17.75;;;;;;;3.55;64.84;101362.25;5031363;28;20032;-42
2022/12/12 10:53:00;;;;;;;41.97;18.08;;;;;;;3.18;65.28;101358.66;5031269;28;20113;-44
2022/12/12 10:55:51;;;;;;;41.65;18.90;;;;;;;3.45;64.83;101354.00;5031603;28;20031;-42
2022/12/12 10:58:17;;;;;;;41.08;19.40;;;;;;;3.36;65.05;101354.41;5031372;28;20025;-42
2022/12/12 11:00:44;;;;;;;43.45;18.33;;;;;;;3.43;64.52;101353.91;5031103;28;20052;-41
2022/12/12 11:03:31;;;;;;;41.80;18.40;;;;;;;3.47;64.64;101352.41;5033694;28;20133;-41
2022/12/12 11:06:03;;;;;;;37.47;17.88;;;;;;;3.70;65.12;101351.81;5033394;28;20395;-42
2022/12/12 11:08:32;;;;;;;43.88;19.48;;;;;;;3.47;65.20;101350.69;5031867;28;20032;-43
2022/12/12 11:11:20;;;;;;;43.78;18.77;;;;;;;3.80;64.61;101347.97;5032656;28;20103;-38
2022/12/12 11:13:51;;;;;;;39.10;18.80;;;;;;;3.82;64.14;101351.53;5038307;28;20021;-45
2022/12/12 11:16:20;;;;;;;41.15;18.17;;;;;;;3.89;63.72;101353.59;5035860;28;20401;-42
2022/12/12 11:18:56;;;;;;;38.83;19.10;;;;;;;3.55;63.40;101353.63;5031953;28;20218;-41
2022/12/12 11:21:22;;;;;;;39.78;17.52;;;;;;;3.82;63.55;101354.09;5037853;28;20028;-42
2022/12/12 11:23:52;;;;;;;38.00;17.77;;;;;;;3.85;63.32;101354.22;5037393;28;20014;-41
2022/12/12 11:26:20;;;;;;;40.70;17.77;;;;;;;3.80;63.39;101354.00;5034067;28;20121;-41
2022/12/12 11:29:06;;;;;;;38.42;17.73;;;;;;;3.88;63.16;101346.66;5033330;28;20033;-45
2022/12/12 11:31:34;;;;;;;40.30;18.00;;;;;;;3.70;62.77;101349.22;5031050;28;20120;-42
2022/12/12 11:34:03;;;;;;;37.42;17.35;;;;;;;3.86;62.63;101351.72;5031341;28;20021;-39
2022/12/12 11:36:34;;;;;;;39.85;17.73;;;;;;;3.78;63.11;101349.63;5031073;28;20386;-44
2022/12/12 11:39:11;;;;;;;34.65;16.98;;;;;;;3.95;63.07;101344.44;5030823;28;20057;-41
2022/12/12 11:42:04;;;;;;;36.38;16.90;;;;;;;4.09;62.64;101350.22;5031017;28;20451;-43
2022/12/12 11:44:36;;;;;;;34.72;17.00;;;;;;;4.11;62.30;101330.56;5033968;28;20052;-43